Time;durP1;ratioP1;P1;durP2;ratioP2;P2;SDS_P1;SDS_P2;PMS_P1;PMS_P2;Temp;Humidity;BMP_temperature;BMP_pressure;BME280_temperature;BME280_humidity;BME280_pressure;Samples;Min_cycle;Max_cycle;Signal;HPM_P1;HPM_P2
2022/07/10 00:00:17;;;;;;;5.40;2.22;;;20.10;91.50;;;;;;5012193;28;20048;-73
2022/07/10 00:02:43;;;;;;;2.60;1.20;;;20.10;91.60;;;;;;5011916;28;20029;-73
2022/07/10 00:05:10;;;;;;;1.83;1.17;;;20.00;91.60;;;;;;5012658;28;20038;-73
2022/07/10 00:07:36;;;;;;;3.28;1.38;;;20.00;91.70;;;;;;5011899;28;20090;-73
2022/07/10 00:10:03;;;;;;;2.17;1.10;;;20.00;91.70;;;;;;5012611;28;20065;-73
2022/07/10 00:12:29;;;;;;;3.10;1.40;;;20.00;91.80;;;;;;5011896;28;20030;-73
2022/07/10 00:14:55;;;;;;;2.10;1.13;;;20.00;91.70;;;;;;5012245;28;20109;-73
2022/07/10 00:17:21;;;;;;;1.65;1.00;;;20.10;91.80;;;;;;5011834;28;20037;-73
2022/07/10 00:19:46;;;;;;;2.85;1.20;;;20.00;91.80;;;;;;5011197;28;20103;-73
2022/07/10 00:22:12;;;;;;;6.05;1.83;;;20.00;91.80;;;;;;5009967;28;20030;-73
2022/07/10 00:24:38;;;;;;;2.75;1.42;;;20.00;91.80;;;;;;5009207;28;20519;-73
2022/07/10 00:27:04;;;;;;;2.63;1.20;;;19.80;92.10;;;;;;5006069;28;20062;-73
2022/07/10 00:29:29;;;;;;;3.65;1.20;;;19.60;92.30;;;;;;5007177;28;20030;-73
2022/07/10 00:31:55;;;;;;;3.13;1.30;;;19.60;92.40;;;;;;5010708;28;20052;-73
2022/07/10 00:34:21;;;;;;;3.55;1.30;;;19.60;92.70;;;;;;5008311;28;20125;-73
2022/07/10 00:36:46;;;;;;;4.35;1.27;;;19.60;92.40;;;;;;5009649;28;20026;-73
2022/07/10 00:39:12;;;;;;;2.38;1.00;;;19.60;92.50;;;;;;5009606;28;20044;-73
2022/07/10 00:41:38;;;;;;;2.65;1.17;;;19.60;92.40;;;;;;5012203;28;20392;-73
2022/07/10 00:44:04;;;;;;;3.17;1.10;;;19.50;92.50;;;;;;5008421;28;20038;-73
2022/07/10 00:46:31;;;;;;;3.80;1.00;;;19.50;92.60;;;;;;5011855;28;20046;-73
2022/07/10 00:48:57;;;;;;;2.80;1.23;;;19.40;92.70;;;;;;5010423;28;20025;-73
2022/07/10 00:51:28;;;;;;;4.63;1.05;;;19.40;92.80;;;;;;5008452;28;20030;-73
2022/07/10 00:53:54;;;;;;;4.65;1.30;;;19.40;92.80;;;;;;5008991;28;20044;-73
2022/07/10 00:56:23;;;;;;;3.00;1.00;;;19.40;92.90;;;;;;5009726;28;20034;-73
2022/07/10 00:58:49;;;;;;;3.55;1.42;;;19.40;92.90;;;;;;5010524;28;20037;-73
2022/07/10 01:01:16;;;;;;;3.97;1.40;;;19.50;92.90;;;;;;5008973;28;20052;-73
2022/07/10 01:03:43;;;;;;;2.15;1.10;;;19.40;92.90;;;;;;5006346;28;20041;-73
2022/07/10 01:06:09;;;;;;;3.15;1.27;;;19.50;92.90;;;;;;5010533;28;20116;-73
2022/07/10 01:08:35;;;;;;;2.63;1.25;;;19.40;92.80;;;;;;5007268;28;20117;-73
2022/07/10 01:11:01;;;;;;;2.80;1.45;;;19.40;92.90;;;;;;5009267;28;20038;-73
2022/07/10 01:13:27;;;;;;;4.93;1.30;;;19.50;92.90;;;;;;5009785;28;20053;-73
2022/07/10 01:15:53;;;;;;;3.35;1.73;;;19.40;93.10;;;;;;5010304;28;20026;-73
2022/07/10 01:18:19;;;;;;;3.38;1.60;;;19.40;93.10;;;;;;5010345;28;20076;-73
2022/07/10 01:20:45;;;;;;;2.75;1.17;;;19.20;93.30;;;;;;5007740;28;20052;-73
2022/07/10 01:23:10;;;;;;;3.20;1.45;;;19.20;93.50;;;;;;5008058;28;20046;-73
2022/07/10 01:25:37;;;;;;;4.13;1.25;;;19.20;93.60;;;;;;5005883;28;20030;-73
2022/07/10 01:28:03;;;;;;;2.80;1.20;;;19.00;93.80;;;;;;5009420;28;20407;-73
2022/07/10 01:30:28;;;;;;;4.40;1.77;;;19.00;94.00;;;;;;5005875;28;20030;-73
2022/07/10 01:32:54;;;;;;;3.80;1.25;;;18.90;93.90;;;;;;5010254;28;20049;-73
2022/07/10 01:35:20;;;;;;;6.10;1.38;;;18.90;94.10;;;;;;5013211;28;20038;-73
2022/07/10 01:37:46;;;;;;;3.17;1.70;;;19.00;94.10;;;;;;5014135;28;20037;-73
2022/07/10 01:40:12;;;;;;;2.88;1.17;;;18.90;94.10;;;;;;5012160;28;20121;-73
2022/07/10 01:42:39;;;;;;;1.88;1.10;;;18.90;94.10;;;;;;5012149;28;20044;-73
2022/07/10 01:45:07;;;;;;;3.38;1.25;;;18.90;94.20;;;;;;5013784;28;20038;-73
2022/07/10 01:47:33;;;;;;;4.22;1.48;;;18.80;94.30;;;;;;5014086;28;20088;-73
2022/07/10 01:49:59;;;;;;;3.15;1.70;;;18.90;94.70;;;;;;5011463;28;20034;-73
2022/07/10 01:52:25;;;;;;;2.85;1.27;;;18.80;94.50;;;;;;5014889;28;20116;-72
2022/07/10 01:54:51;;;;;;;2.90;1.50;;;18.80;94.60;;;;;;5009286;28;20038;-73
2022/07/10 01:57:16;;;;;;;2.80;1.13;;;18.90;94.60;;;;;;5008597;28;20109;-73
2022/07/10 01:59:42;;;;;;;2.33;1.20;;;19.00;94.30;;;;;;5010795;28;20033;-73
2022/07/10 02:02:08;;;;;;;2.40;1.00;;;18.90;94.30;;;;;;5010585;28;20038;-73
2022/07/10 02:04:43;;;;;;;3.75;1.15;;;18.90;94.20;;;;;;5010658;28;20038;-73
2022/07/10 02:07:21;;;;;;;3.13;1.33;;;18.90;94.40;;;;;;5013722;28;20113;-73
2022/07/10 02:09:47;;;;;;;5.57;1.60;;;18.80;94.50;;;;;;5013337;28;20033;-73
2022/07/10 02:12:14;;;;;;;4.15;1.17;;;18.70;94.70;;;;;;5009397;28;20707;-73
2022/07/10 02:14:41;;;;;;;2.17;1.13;;;18.60;94.80;;;;;;5012439;28;20038;-73
2022/07/10 02:17:08;;;;;;;3.53;1.13;;;18.60;95.10;;;;;;5012078;28;20062;-73
2022/07/10 02:19:34;;;;;;;2.35;1.45;;;18.40;95.40;;;;;;4995790;28;20400;-73
2022/07/10 02:22:00;;;;;;;2.08;1.35;;;18.30;95.40;;;;;;5010953;28;20026;-72
2022/07/10 02:24:26;;;;;;;2.22;0.95;;;18.60;95.10;;;;;;5012570;28;20054;-73
2022/07/10 02:26:52;;;;;;;2.03;1.17;;;18.40;95.40;;;;;;5013707;28;20030;-74
2022/07/10 02:29:18;;;;;;;2.05;1.15;;;18.40;95.50;;;;;;5008892;28;20038;-73
2022/07/10 02:31:44;;;;;;;3.88;1.88;;;18.30;95.60;;;;;;5009133;28;20108;-73
2022/07/10 02:34:11;;;;;;;2.88;1.23;;;18.30;95.80;;;;;;5010122;28;20041;-73
2022/07/10 02:36:38;;;;;;;1.60;0.95;;;18.40;95.60;;;;;;5012855;28;20084;-73
2022/07/10 02:39:05;;;;;;;2.70;1.40;;;18.40;95.60;;;;;;5011225;28;20029;-73
2022/07/10 02:41:32;;;;;;;2.60;1.25;;;18.20;95.90;;;;;;5012195;28;20034;-73
2022/07/10 02:43:58;;;;;;;2.67;1.30;;;18.40;95.80;;;;;;5011956;28;20045;-73
2022/07/10 02:46:25;;;;;;;3.35;1.20;;;18.40;95.80;;;;;;5015453;28;20022;-73
2022/07/10 02:48:50;;;;;;;4.50;1.73;;;18.40;95.80;;;;;;5010051;28;20025;-73
2022/07/10 02:51:16;;;;;;;3.85;1.25;;;18.20;96.00;;;;;;5011756;28;20392;-73
2022/07/10 02:53:42;;;;;;;2.67;1.40;;;18.20;95.90;;;;;;5011308;28;20038;-73
2022/07/10 02:56:08;;;;;;;4.82;1.40;;;18.30;95.60;;;;;;5011347;28;20045;-73
2022/07/10 02:58:33;;;;;;;5.63;1.58;;;18.50;95.40;;;;;;5012473;28;20034;-73
2022/07/10 03:00:59;;;;;;;2.92;1.30;;;18.30;95.50;;;;;;5009158;28;20138;-72
2022/07/10 03:03:25;;;;;;;3.45;1.52;;;18.40;95.60;;;;;;5004917;28;20036;-72
2022/07/10 03:05:51;;;;;;;2.10;1.05;;;18.30;95.80;;;;;;5006316;28;20030;-72
2022/07/10 03:08:16;;;;;;;4.82;1.40;;;18.20;95.90;;;;;;5006376;28;20583;-72
2022/07/10 03:10:42;;;;;;;3.42;1.40;;;18.20;96.00;;;;;;5004130;28;20038;-72
2022/07/10 03:13:08;;;;;;;3.47;1.50;;;18.10;96.20;;;;;;5002545;28;20034;-72
2022/07/10 03:15:33;;;;;;;2.40;1.20;;;18.10;96.20;;;;;;5006170;28;20034;-72
2022/07/10 03:17:59;;;;;;;3.17;1.40;;;18.00;96.30;;;;;;4998962;28;20121;-72
2022/07/10 03:20:25;;;;;;;3.33;0.98;;;18.00;96.20;;;;;;5006400;28;20033;-73
2022/07/10 03:22:51;;;;;;;2.75;1.10;;;18.10;96.30;;;;;;5007061;28;20046;-72
2022/07/10 03:25:17;;;;;;;1.73;1.13;;;18.10;96.10;;;;;;5008194;28;20072;-72
2022/07/10 03:27:42;;;;;;;2.72;1.40;;;18.00;96.10;;;;;;4988965;28;20045;-72
2022/07/10 03:30:09;;;;;;;4.15;1.20;;;18.00;96.20;;;;;;5008324;28;20068;-72
2022/07/10 03:32:34;;;;;;;3.40;1.38;;;18.10;96.30;;;;;;5007111;28;20030;-72
2022/07/10 03:35:00;;;;;;;3.70;1.65;;;18.10;96.30;;;;;;5007107;28;20059;-72
2022/07/10 03:37:27;;;;;;;3.63;1.42;;;18.20;96.40;;;;;;5006989;28;20451;-72
2022/07/10 03:39:52;;;;;;;8.82;1.33;;;18.10;96.50;;;;;;5000654;28;20358;-72
2022/07/10 03:42:18;;;;;;;3.67;1.50;;;18.10;96.20;;;;;;5005649;28;20068;-72
2022/07/10 03:44:44;;;;;;;2.45;1.30;;;18.20;96.20;;;;;;5008611;28;20033;-73
2022/07/10 03:47:11;;;;;;;4.85;1.75;;;18.20;96.00;;;;;;5007142;28;20502;-72
2022/07/10 03:49:38;;;;;;;3.20;1.40;;;18.10;95.90;;;;;;5007738;28;20033;-72
2022/07/10 03:52:04;;;;;;;4.50;1.40;;;18.10;95.90;;;;;;5006596;28;20030;-72
2022/07/10 03:54:30;;;;;;;2.58;1.02;;;18.30;95.70;;;;;;5007656;28;20108;-72
2022/07/10 03:59:41;;;;;;;5.13;1.58;;;18.40;95.60;;;;;;5003944;28;20049;-72
2022/07/10 04:02:07;;;;;;;2.85;1.40;;;18.30;95.80;;;;;;5004135;28;20033;-73
2022/07/10 04:04:33;;;;;;;3.17;1.40;;;18.30;95.80;;;;;;5002296;28;20042;-72
2022/07/10 04:06:58;;;;;;;2.63;1.20;;;18.20;95.90;;;;;;5003945;28;20033;-72
2022/07/10 04:09:24;;;;;;;5.28;1.60;;;18.20;96.00;;;;;;5003859;28;20037;-73
2022/07/10 04:11:50;;;;;;;2.42;1.20;;;18.10;96.20;;;;;;5002087;28;20461;-72
2022/07/10 04:14:16;;;;;;;3.75;1.40;;;18.00;96.50;;;;;;5003541;28;20449;-72
2022/07/10 04:16:41;;;;;;;4.22;1.30;;;18.10;96.50;;;;;;5002931;28;20038;-72
2022/07/10 04:19:07;;;;;;;4.47;1.58;;;18.00;96.80;;;;;;4999690;28;20039;-72
2022/07/10 04:21:33;;;;;;;3.08;1.30;;;18.10;96.70;;;;;;5003489;28;20157;-72
2022/07/10 04:23:58;;;;;;;2.92;1.08;;;18.00;96.40;;;;;;5003882;28;20085;-72
2022/07/10 04:26:24;;;;;;;3.85;1.30;;;18.00;96.40;;;;;;5002396;28;20034;-72
2022/07/10 04:28:50;;;;;;;4.20;1.42;;;17.90;96.60;;;;;;5005272;28;20221;-72
2022/07/10 04:31:16;;;;;;;2.58;1.30;;;17.90;96.70;;;;;;5004659;28;20461;-72
2022/07/10 04:33:41;;;;;;;2.33;1.10;;;17.90;96.90;;;;;;5004717;28;20038;-72
2022/07/10 04:36:07;;;;;;;4.53;1.40;;;17.90;96.60;;;;;;4995340;28;20034;-72
2022/07/10 04:38:33;;;;;;;4.93;2.03;;;18.00;96.70;;;;;;5002193;28;20034;-73
2022/07/10 04:40:59;;;;;;;2.97;1.40;;;18.00;96.70;;;;;;5000421;28;20038;-73
2022/07/10 04:43:25;;;;;;;1.42;0.90;;;18.00;96.80;;;;;;4999551;28;20084;-72
2022/07/10 04:45:51;;;;;;;2.90;1.10;;;17.90;97.00;;;;;;5002741;28;20112;-73
2022/07/10 04:48:17;;;;;;;7.00;1.83;;;18.00;97.30;;;;;;5002414;28;20035;-73
2022/07/10 04:50:42;;;;;;;4.32;1.40;;;18.20;96.90;;;;;;5000433;28;20041;-72
2022/07/10 04:53:08;;;;;;;2.38;1.27;;;18.30;96.70;;;;;;5003890;28;20069;-73
2022/07/10 04:55:34;;;;;;;4.35;1.63;;;18.20;97.00;;;;;;5003722;28;20056;-73
2022/07/10 04:57:59;;;;;;;3.22;1.42;;;18.10;97.30;;;;;;5001020;28;20054;-73
2022/07/10 05:00:26;;;;;;;2.50;1.30;;;18.10;97.30;;;;;;5004745;28;20022;-73
2022/07/10 05:02:51;;;;;;;3.13;1.50;;;18.20;97.20;;;;;;5002858;28;20030;-73
2022/07/10 05:05:17;;;;;;;4.90;1.35;;;18.20;97.10;;;;;;5007672;28;20034;-72
2022/07/10 05:07:43;;;;;;;1.80;1.10;;;18.40;96.80;;;;;;5004221;28;20034;-73
2022/07/10 05:10:09;;;;;;;2.85;1.60;;;18.50;96.50;;;;;;5003042;28;20465;-72
2022/07/10 05:12:35;;;;;;;3.15;1.30;;;18.70;96.40;;;;;;5007114;28;20050;-72
2022/07/10 05:15:01;;;;;;;2.80;1.30;;;18.80;95.90;;;;;;5007227;28;20046;-72
2022/07/10 05:17:28;;;;;;;3.35;1.80;;;18.90;96.40;;;;;;5011527;28;20447;-72
2022/07/10 05:19:55;;;;;;;4.97;1.70;;;19.00;96.50;;;;;;5009822;28;20518;-72
2022/07/10 05:22:21;;;;;;;2.80;1.30;;;19.10;96.00;;;;;;5006015;28;20116;-72
2022/07/10 05:24:47;;;;;;;2.80;1.48;;;19.20;96.00;;;;;;5004825;28;20129;-72
2022/07/10 05:27:13;;;;;;;2.97;1.42;;;19.20;96.00;;;;;;5008301;28;20485;-72
2022/07/10 05:29:38;;;;;;;3.33;1.50;;;19.20;96.80;;;;;;5009184;28;20136;-72
2022/07/10 05:32:04;;;;;;;2.80;1.20;;;19.30;96.70;;;;;;5008254;28;20037;-72
2022/07/10 05:34:30;;;;;;;3.10;1.30;;;19.20;96.50;;;;;;5008827;28;20042;-72
2022/07/10 05:36:56;;;;;;;3.05;1.00;;;19.10;96.20;;;;;;5006705;28;20034;-72
2022/07/10 05:39:22;;;;;;;4.18;1.70;;;19.20;96.40;;;;;;5008843;28;20087;-72
2022/07/10 05:41:47;;;;;;;4.18;1.30;;;19.40;96.50;;;;;;5008932;28;20133;-72
2022/07/10 05:44:13;;;;;;;6.97;1.55;;;19.50;97.50;;;;;;5007978;28;20466;-72
2022/07/10 05:46:39;;;;;;;3.78;1.50;;;19.50;97.20;;;;;;5007032;28;20460;-73
2022/07/10 05:49:05;;;;;;;4.22;1.42;;;19.50;96.70;;;;;;5009087;28;20026;-73
2022/07/10 05:51:30;;;;;;;2.97;1.40;;;19.50;96.60;;;;;;5006395;28;20038;-72
2022/07/10 05:53:56;;;;;;;4.40;1.60;;;19.60;96.70;;;;;;5009923;28;20092;-72
2022/07/10 05:56:22;;;;;;;8.45;2.08;;;19.70;96.80;;;;;;5008100;28;20030;-72
2022/07/10 05:58:49;;;;;;;5.25;1.38;;;19.80;96.50;;;;;;5008735;28;20033;-72
2022/07/10 06:01:15;;;;;;;4.45;1.42;;;19.70;96.70;;;;;;5005442;28;20030;-72
2022/07/10 06:03:40;;;;;;;2.90;1.50;;;19.80;96.80;;;;;;5006878;28;20033;-72
2022/07/10 06:06:06;;;;;;;4.03;1.67;;;19.70;96.40;;;;;;5004766;28;20459;-72
2022/07/10 06:08:32;;;;;;;4.60;1.83;;;19.80;96.30;;;;;;5006753;28;20126;-72
2022/07/10 06:10:57;;;;;;;3.13;1.98;;;19.70;95.90;;;;;;5006915;28;20045;-72
2022/07/10 06:13:23;;;;;;;6.10;2.03;;;19.80;95.90;;;;;;5009347;28;20091;-72
2022/07/10 06:15:49;;;;;;;4.95;1.88;;;19.80;95.90;;;;;;5009284;28;20038;-72
2022/07/10 06:18:14;;;;;;;3.72;1.85;;;19.80;96.20;;;;;;5006510;28;20161;-72
2022/07/10 06:20:40;;;;;;;3.42;1.30;;;19.80;96.30;;;;;;5007604;28;20030;-72
2022/07/10 06:23:05;;;;;;;3.58;1.60;;;19.90;95.70;;;;;;5004906;28;20058;-72
2022/07/10 06:25:31;;;;;;;3.72;2.03;;;19.90;95.70;;;;;;5007190;28;20026;-73
2022/07/10 06:27:57;;;;;;;4.47;1.65;;;19.90;95.40;;;;;;5009050;28;20026;-73
2022/07/10 06:30:22;;;;;;;2.78;1.65;;;20.00;95.40;;;;;;5007351;28;20473;-73
2022/07/10 06:32:48;;;;;;;5.32;1.80;;;20.10;95.50;;;;;;5008435;28;20065;-72
2022/07/10 06:35:14;;;;;;;2.95;1.80;;;20.10;95.60;;;;;;5002373;28;20507;-72
2022/07/10 06:37:39;;;;;;;2.58;1.42;;;20.10;95.20;;;;;;5008363;28;20198;-72
2022/07/10 06:40:06;;;;;;;3.08;1.45;;;20.10;95.00;;;;;;5005052;28;20117;-73
2022/07/10 06:42:31;;;;;;;3.72;1.75;;;20.20;94.90;;;;;;5004525;28;20073;-72
2022/07/10 06:44:57;;;;;;;4.60;1.77;;;20.20;94.90;;;;;;5004014;28;20065;-73
2022/07/10 06:50:08;;;;;;;5.60;2.20;;;20.30;94.60;;;;;;5003271;28;20080;-73
2022/07/10 06:52:35;;;;;;;5.13;1.70;;;20.40;94.40;;;;;;5008166;28;20037;-73
2022/07/10 06:55:02;;;;;;;4.70;2.03;;;20.50;94.30;;;;;;5006222;28;20534;-73
2022/07/10 06:57:28;;;;;;;5.38;2.13;;;20.60;94.40;;;;;;5007985;28;20034;-73
2022/07/10 06:59:53;;;;;;;3.47;1.55;;;20.80;94.40;;;;;;5003060;28;20032;-73
2022/07/10 07:02:19;;;;;;;3.42;1.65;;;20.90;94.20;;;;;;5006141;28;20093;-73
2022/07/10 07:04:45;;;;;;;2.83;1.45;;;21.20;93.40;;;;;;5007405;28;20034;-73
2022/07/10 07:07:12;;;;;;;7.68;2.20;;;21.30;93.10;;;;;;5008320;28;20048;-73
2022/07/10 07:09:40;;;;;;;1.80;1.00;;;21.60;93.00;;;;;;5010143;28;20037;-76
2022/07/10 07:12:06;;;;;;;2.53;1.58;;;21.80;92.80;;;;;;5012461;28;20033;-75
2022/07/10 07:14:32;;;;;;;4.18;2.13;;;22.00;92.70;;;;;;5010228;28;20033;-77
2022/07/10 07:17:05;;;;;;;3.35;1.30;;;22.30;92.80;;;;;;5003641;28;20049;-74
2022/07/10 07:25:09;;;;;;;3.60;1.23;;;23.10;91.40;;;;;;5004400;28;20551;-74
2022/07/10 07:27:36;;;;;;;5.82;1.38;;;23.40;91.40;;;;;;5006671;28;20092;-74
2022/07/10 07:30:07;;;;;;;3.67;1.60;;;23.80;90.50;;;;;;5005284;28;20103;-73
2022/07/10 07:32:33;;;;;;;4.63;1.42;;;24.10;90.40;;;;;;5002638;28;20057;-72
2022/07/10 07:35:00;;;;;;;5.30;1.55;;;24.70;90.00;;;;;;5004052;28;20042;-74
2022/07/10 07:37:42;;;;;;;3.58;1.17;;;25.50;89.20;;;;;;5006245;28;20084;-74
2022/07/10 07:40:10;;;;;;;2.47;1.17;;;26.60;85.90;;;;;;5002853;28;20686;-73
2022/07/10 07:42:36;;;;;;;2.88;1.10;;;27.20;83.60;;;;;;5006289;28;20041;-72
2022/07/10 07:45:03;;;;;;;2.65;1.25;;;28.30;81.80;;;;;;5007155;28;20109;-73
2022/07/10 07:47:30;;;;;;;4.20;1.33;;;28.60;80.40;;;;;;5005481;28;20033;-73
2022/07/10 07:49:56;;;;;;;3.08;1.20;;;28.60;79.80;;;;;;5007838;28;20923;-73
2022/07/10 07:52:22;;;;;;;4.50;1.30;;;29.00;79.30;;;;;;5008450;28;20030;-73
2022/07/10 07:54:50;;;;;;;5.38;1.40;;;29.10;78.60;;;;;;5002817;28;20052;-73
2022/07/10 07:57:16;;;;;;;2.85;1.30;;;29.00;79.40;;;;;;5008019;28;20044;-72
2022/07/10 07:59:42;;;;;;;3.03;1.42;;;28.60;80.90;;;;;;5005702;28;20042;-73
2022/07/10 08:02:08;;;;;;;3.67;1.30;;;28.10;80.80;;;;;;5004031;28;20026;-73
2022/07/10 08:04:33;;;;;;;3.75;1.40;;;27.70;81.70;;;;;;5002614;28;20112;-72
2022/07/10 08:07:01;;;;;;;2.88;1.50;;;27.10;82.90;;;;;;5004965;28;20041;-73
2022/07/10 08:09:26;;;;;;;3.40;1.35;;;26.90;85.10;;;;;;5004977;28;20112;-73
2022/07/10 08:11:52;;;;;;;2.97;1.35;;;26.80;84.60;;;;;;4999554;28;20109;-74
2022/07/10 08:14:18;;;;;;;2.95;1.20;;;26.10;84.20;;;;;;5003060;28;20042;-73
2022/07/10 08:16:43;;;;;;;4.53;1.38;;;26.40;84.80;;;;;;5003393;28;20133;-73
2022/07/10 08:19:09;;;;;;;3.30;1.63;;;25.50;86.00;;;;;;5004865;28;20080;-73
2022/07/10 08:21:35;;;;;;;23.85;2.40;;;25.90;84.30;;;;;;5005460;28;20083;-73
2022/07/10 08:24:01;;;;;;;3.13;1.50;;;25.80;84.90;;;;;;5004878;28;20050;-74
2022/07/10 08:26:26;;;;;;;3.53;1.40;;;26.00;85.10;;;;;;5007197;28;20030;-72
2022/07/10 08:28:52;;;;;;;2.70;1.17;;;26.50;85.00;;;;;;5004052;28;20034;-73
2022/07/10 08:31:18;;;;;;;3.83;1.23;;;26.50;82.90;;;;;;5004421;28;20021;-73
2022/07/10 08:33:43;;;;;;;5.18;1.58;;;26.50;82.70;;;;;;5007187;28;20041;-73
2022/07/10 08:36:09;;;;;;;3.35;1.50;;;26.50;82.20;;;;;;5004036;28;20501;-74
2022/07/10 08:38:35;;;;;;;1.85;1.00;;;26.60;82.60;;;;;;5005673;28;20083;-73
2022/07/10 08:41:05;;;;;;;3.25;1.20;;;26.80;82.60;;;;;;4999598;28;20030;-73
2022/07/10 08:43:31;;;;;;;14.23;1.73;;;26.80;82.60;;;;;;5006613;28;20045;-75
2022/07/10 08:45:58;;;;;;;7.32;1.27;;;26.80;80.90;;;;;;5002455;28;21611;-75
2022/07/10 08:48:24;;;;;;;9.27;2.05;;;26.50;80.00;;;;;;5006689;28;20026;-75
2022/07/10 08:50:56;;;;;;;2.30;1.23;;;26.40;80.20;;;;;;5006776;28;20580;-75
2022/07/10 08:53:31;;;;;;;2.65;1.00;;;26.60;80.40;;;;;;5006961;28;20038;-75
2022/07/10 08:55:58;;;;;;;3.95;1.10;;;26.60;80.50;;;;;;5007303;28;20042;-75
2022/07/10 08:58:26;;;;;;;3.60;1.35;;;26.60;81.10;;;;;;5007897;28;20457;-74
2022/07/10 09:00:51;;;;;;;2.92;1.60;;;26.80;80.00;;;;;;5006920;28;20030;-75
2022/07/10 09:03:17;;;;;;;3.95;1.30;;;27.10;79.60;;;;;;5007853;28;20129;-75
2022/07/10 09:05:43;;;;;;;2.78;1.30;;;27.30;78.80;;;;;;5004980;28;20076;-75
2022/07/10 09:08:27;;;;;;;3.28;1.42;;;27.40;80.70;;;;;;5005209;28;20084;-75
2022/07/10 09:11:12;;;;;;;2.60;1.27;;;27.30;81.20;;;;;;5006746;28;20034;-75
2022/07/10 09:13:49;;;;;;;2.15;1.05;;;27.60;80.40;;;;;;5006804;28;20054;-75
2022/07/10 09:16:42;;;;;;;3.47;1.17;;;27.70;78.50;;;;;;5004958;28;20044;-75
2022/07/10 09:19:25;;;;;;;2.60;1.05;;;27.60;77.90;;;;;;5000118;28;20630;-75
2022/07/10 09:22:02;;;;;;;2.72;1.15;;;27.70;77.40;;;;;;5006920;28;20063;-75
2022/07/10 09:24:38;;;;;;;1.73;0.88;;;27.90;78.50;;;;;;5005547;28;20068;-75
2022/07/10 09:27:04;;;;;;;3.80;0.82;;;28.50;77.70;;;;;;5006493;28;20583;-75
2022/07/10 09:29:31;;;;;;;3.58;1.05;;;28.30;76.50;;;;;;5005813;28;20057;-75
2022/07/10 09:32:02;;;;;;;2.20;1.00;;;28.30;77.70;;;;;;5007060;28;20124;-75
2022/07/10 09:34:41;;;;;;;2.55;1.10;;;28.20;77.30;;;;;;5006484;28;20049;-75
2022/07/10 09:37:28;;;;;;;4.35;1.08;;;28.10;77.20;;;;;;5007384;28;20049;-75
2022/07/10 09:40:05;;;;;;;3.08;1.20;;;28.50;77.10;;;;;;5006592;28;20563;-75
2022/07/10 09:42:42;;;;;;;2.90;1.00;;;28.90;75.60;;;;;;5006168;28;20033;-74
2022/07/10 09:45:17;;;;;;;11.88;1.85;;;28.70;74.40;;;;;;5003660;28;20026;-74
2022/07/10 09:47:52;;;;;;;12.60;1.77;;;28.70;75.60;;;;;;5005354;28;20036;-74
2022/07/10 09:50:22;;;;;;;6.07;0.98;;;28.80;75.60;;;;;;5006435;28;20033;-74
2022/07/10 09:52:53;;;;;;;3.15;0.95;;;28.80;76.50;;;;;;5006447;28;20022;-74
2022/07/10 09:55:26;;;;;;;3.50;1.13;;;28.90;74.50;;;;;;5007395;28;20041;-75
2022/07/10 09:57:57;;;;;;;3.00;0.93;;;28.70;75.00;;;;;;5010091;28;20022;-74
2022/07/10 10:00:33;;;;;;;3.20;1.10;;;28.70;75.10;;;;;;5010189;28;20161;-74
2022/07/10 10:03:01;;;;;;;25.55;2.92;;;29.10;73.40;;;;;;5010205;28;20109;-75
2022/07/10 10:06:04;;;;;;;6.03;1.33;;;28.90;73.70;;;;;;5010358;28;20518;-74
2022/07/10 10:08:56;;;;;;;2.92;1.10;;;28.80;72.30;;;;;;4995933;28;20046;-75
2022/07/10 10:11:25;;;;;;;3.95;1.00;;;29.10;74.60;;;;;;5009904;28;20061;-75
2022/07/10 10:13:52;;;;;;;4.93;1.90;;;29.60;73.90;;;;;;5009976;28;20077;-75
2022/07/10 10:16:19;;;;;;;3.10;1.15;;;29.70;72.60;;;;;;5009393;28;20472;-74
2022/07/10 10:21:32;;;;;;;4.75;1.20;;;29.20;72.80;;;;;;5010275;28;20104;-74
2022/07/10 10:24:00;;;;;;;11.07;1.60;;;29.50;72.10;;;;;;5009948;28;20042;-74
2022/07/10 10:26:26;;;;;;;10.30;1.60;;;29.70;72.10;;;;;;5010214;28;20084;-74
2022/07/10 10:28:54;;;;;;;2.00;1.00;;;29.30;72.20;;;;;;5010219;28;20026;-74
2022/07/10 10:31:21;;;;;;;1.13;0.60;;;29.70;73.30;;;;;;5008805;28;20080;-74
2022/07/10 10:33:48;;;;;;;4.03;1.02;;;29.80;71.90;;;;;;5009255;28;20138;-74
2022/07/10 10:36:35;;;;;;;6.90;1.23;;;29.80;70.90;;;;;;5009119;28;20476;-74
2022/07/10 10:39:16;;;;;;;1.58;0.80;;;30.00;70.90;;;;;;5002940;28;20034;-75
2022/07/10 10:41:52;;;;;;;1.83;0.80;;;30.30;69.90;;;;;;5009770;28;20073;-74
2022/07/10 10:44:18;;;;;;;3.53;1.00;;;30.30;70.80;;;;;;5008921;28;20038;-74
2022/07/10 10:47:01;;;;;;;3.15;0.82;;;30.60;69.60;;;;;;5006570;28;20504;-74
2022/07/10 10:49:46;;;;;;;3.53;1.20;;;30.60;68.90;;;;;;5007868;28;20056;-74
2022/07/10 10:52:15;;;;;;;2.47;1.00;;;30.20;68.80;;;;;;5010097;28;20029;-74
2022/07/10 10:54:56;;;;;;;2.10;0.80;;;30.40;70.80;;;;;;5008452;28;20045;-75
2022/07/10 10:57:23;;;;;;;3.67;1.42;;;31.00;69.60;;;;;;5006836;28;20088;-75
2022/07/10 10:59:53;;;;;;;2.42;0.93;;;31.00;69.60;;;;;;5008759;28;20041;-75
2022/07/10 11:02:26;;;;;;;1.95;0.90;;;30.70;68.90;;;;;;5008352;28;20029;-75
2022/07/10 11:05:18;;;;;;;2.53;1.10;;;30.60;69.70;;;;;;5007151;28;20037;-74
2022/07/10 11:08:03;;;;;;;1.25;0.93;;;30.70;68.80;;;;;;5001220;28;20030;-75
2022/07/10 11:10:45;;;;;;;2.67;1.15;;;30.40;68.40;;;;;;5006982;28;20061;-74
2022/07/10 11:13:12;;;;;;;2.85;0.93;;;30.70;68.40;;;;;;5008617;28;20473;-74
2022/07/10 11:15:43;;;;;;;2.10;1.02;;;30.70;67.30;;;;;;5008247;28;20179;-74
2022/07/10 11:18:18;;;;;;;2.60;0.93;;;30.70;68.60;;;;;;5009381;28;20045;-74
2022/07/10 11:20:49;;;;;;;4.25;0.95;;;30.40;68.60;;;;;;5007988;28;20629;-75
2022/07/10 11:23:48;;;;;;;2.90;1.48;;;29.90;69.70;;;;;;5006053;28;20530;-74
2022/07/10 11:26:36;;;;;;;2.40;1.15;;;29.60;69.00;;;;;;5007550;28;20034;-74
2022/07/10 11:29:07;;;;;;;1.77;0.85;;;30.10;69.60;;;;;;5008210;28;20061;-75
2022/07/10 11:31:44;;;;;;;3.25;0.88;;;30.20;67.70;;;;;;5008337;28;20025;-75
2022/07/10 11:34:10;;;;;;;2.47;0.75;;;30.30;68.30;;;;;;5005745;28;20033;-74
2022/07/10 11:36:39;;;;;;;3.08;0.88;;;30.30;69.10;;;;;;5008004;28;20033;-75
2022/07/10 11:39:08;;;;;;;2.35;1.05;;;30.80;70.70;;;;;;5007533;28;20025;-75
2022/07/10 11:41:47;;;;;;;2.75;1.13;;;31.00;69.00;;;;;;5006818;28;20560;-74
2022/07/10 11:44:17;;;;;;;2.95;0.95;;;30.70;67.40;;;;;;5006925;28;20030;-74
2022/07/10 11:46:48;;;;;;;1.35;0.60;;;30.90;69.70;;;;;;5006507;28;20126;-74
2022/07/10 11:49:15;;;;;;;2.58;0.90;;;31.10;68.20;;;;;;5007732;28;20057;-74
2022/07/10 11:51:41;;;;;;;4.05;1.05;;;31.10;68.40;;;;;;5005767;28;20054;-74
2022/07/10 11:54:13;;;;;;;13.20;2.05;;;31.30;69.60;;;;;;5007708;28;20619;-75
2022/07/10 11:56:43;;;;;;;1.25;0.77;;;31.30;68.90;;;;;;5007481;28;20034;-75
2022/07/10 11:59:11;;;;;;;3.58;0.70;;;31.20;66.30;;;;;;5007753;28;20092;-75
2022/07/10 12:01:47;;;;;;;3.13;0.80;;;31.40;67.60;;;;;;5006013;28;20030;-75
2022/07/10 12:04:17;;;;;;;2.50;1.23;;;31.80;68.70;;;;;;5007735;28;20034;-75
2022/07/10 12:06:46;;;;;;;1.52;0.70;;;31.60;67.40;;;;;;5001449;28;20134;-74
2022/07/10 12:09:16;;;;;;;2.92;1.00;;;31.60;66.40;;;;;;5006939;28;20034;-74
2022/07/10 12:11:44;;;;;;;1.50;0.80;;;31.20;66.70;;;;;;5007123;28;20500;-74
2022/07/10 12:14:14;;;;;;;3.33;0.82;;;31.20;66.00;;;;;;5007413;28;20048;-75
2022/07/10 12:16:42;;;;;;;2.95;0.90;;;31.50;66.50;;;;;;5007401;28;20030;-74
2022/07/10 12:19:10;;;;;;;1.30;0.75;;;31.70;67.60;;;;;;5004711;28;20468;-74
2022/07/10 12:21:36;;;;;;;2.13;1.15;;;31.80;66.40;;;;;;5005973;28;20120;-74
2022/07/10 12:24:02;;;;;;;2.15;1.10;;;32.00;66.20;;;;;;5006093;28;20054;-75
2022/07/10 12:26:39;;;;;;;1.40;0.73;;;31.30;64.80;;;;;;5006971;28;20084;-75
2022/07/10 12:29:05;;;;;;;3.50;0.90;;;31.70;66.90;;;;;;5001154;28;20048;-74
2022/07/10 12:31:34;;;;;;;1.40;0.68;;;31.80;65.90;;;;;;5007780;28;20084;-75
2022/07/10 12:34:04;;;;;;;1.70;0.60;;;31.80;66.00;;;;;;5007612;28;20073;-75
2022/07/10 12:36:49;;;;;;;3.92;0.93;;;31.70;65.20;;;;;;5007208;28;20510;-74
2022/07/10 12:39:17;;;;;;;1.88;0.73;;;31.70;64.60;;;;;;5006325;28;20129;-75
2022/07/10 12:42:02;;;;;;;1.95;0.90;;;31.90;66.40;;;;;;5008399;28;20491;-74
2022/07/10 12:44:41;;;;;;;8.48;1.20;;;31.90;65.20;;;;;;5006516;28;20025;-74
2022/07/10 12:47:08;;;;;;;4.22;0.80;;;32.10;65.60;;;;;;5003301;28;20626;-75
2022/07/10 12:49:57;;;;;;;2.88;1.25;;;31.50;65.60;;;;;;5005747;28;20029;-74
2022/07/10 12:52:38;;;;;;;2.13;0.98;;;31.30;67.00;;;;;;5006314;28;21236;-75
2022/07/10 12:55:22;;;;;;;1.98;1.00;;;30.70;66.30;;;;;;5007197;28;20468;-75
2022/07/10 12:57:49;;;;;;;1.65;0.80;;;30.70;65.10;;;;;;5007148;28;20040;-75
2022/07/10 13:00:18;;;;;;;1.63;0.77;;;31.30;66.40;;;;;;5007804;28;20029;-75
2022/07/10 13:02:45;;;;;;;1.80;0.77;;;31.70;65.40;;;;;;5006235;28;20124;-74
2022/07/10 13:05:25;;;;;;;4.20;0.90;;;31.60;65.00;;;;;;5007369;28;20030;-75